sensor_id;sensor_type;location;lat;lon;timestamp;pressure;altitude;pressure_sealevel;temperature;humidity
49040;BME280;36811;49.732;13.402;2023-02-15T00:00:16;99416.69;;;1.47;93.66
49040;BME280;36811;49.732;13.402;2023-02-15T00:02:42;99410.31;;;1.49;94.68
49040;BME280;36811;49.732;13.402;2023-02-15T00:05:08;99393.78;;;1.57;93.97
49040;BME280;36811;49.732;13.402;2023-02-15T00:07:34;99395.09;;;1.61;93.74
49040;BME280;36811;49.732;13.402;2023-02-15T00:09:59;99393.25;;;1.53;93.40
49040;BME280;36811;49.732;13.402;2023-02-15T00:12:25;99410.22;;;1.33;93.44
49040;BME280;36811;49.732;13.402;2023-02-15T00:14:51;99407.09;;;1.29;93.88
49040;BME280;36811;49.732;13.402;2023-02-15T00:17:16;99402.50;;;1.23;94.20
49040;BME280;36811;49.732;13.402;2023-02-15T00:19:42;99406.41;;;1.27;94.28
49040;BME280;36811;49.732;13.402;2023-02-15T00:22:08;99404.59;;;1.20;94.17
49040;BME280;36811;49.732;13.402;2023-02-15T00:24:34;99402.44;;;1.15;94.60
49040;BME280;36811;49.732;13.402;2023-02-15T00:27:00;99397.50;;;1.12;94.52
49040;BME280;36811;49.732;13.402;2023-02-15T00:29:26;99400.28;;;1.11;94.47
49040;BME280;36811;49.732;13.402;2023-02-15T00:31:53;99394.84;;;1.04;95.25
49040;BME280;36811;49.732;13.402;2023-02-15T00:34:26;99402.44;;;1.15;94.96
49040;BME280;36811;49.732;13.402;2023-02-15T00:36:53;99397.53;;;1.20;94.76
49040;BME280;36811;49.732;13.402;2023-02-15T00:39:19;99395.09;;;1.27;94.88
49040;BME280;36811;49.732;13.402;2023-02-15T00:41:46;99390.19;;;1.24;93.08
49040;BME280;36811;49.732;13.402;2023-02-15T00:44:14;99388.16;;;1.10;93.68
49040;BME280;36811;49.732;13.402;2023-02-15T00:46:40;99388.69;;;1.13;94.44
49040;BME280;36811;49.732;13.402;2023-02-15T00:49:06;99380.34;;;1.18;94.86
49040;BME280;36811;49.732;13.402;2023-02-15T00:51:31;99384.44;;;1.20;94.33
49040;BME280;36811;49.732;13.402;2023-02-15T00:53:57;99386.06;;;1.21;94.76
49040;BME280;36811;49.732;13.402;2023-02-15T00:56:23;99387.69;;;1.14;94.73
49040;BME280;36811;49.732;13.402;2023-02-15T00:58:49;99382.75;;;1.11;94.47
49040;BME280;36811;49.732;13.402;2023-02-15T01:01:17;99384.75;;;1.17;94.79
49040;BME280;36811;49.732;13.402;2023-02-15T01:03:43;99372.31;;;1.19;94.92
49040;BME280;36811;49.732;13.402;2023-02-15T01:06:10;99377.97;;;1.07;93.75
49040;BME280;36811;49.732;13.402;2023-02-15T01:08:36;99372.56;;;1.00;94.79
49040;BME280;36811;49.732;13.402;2023-02-15T01:11:07;99370.84;;;0.91;94.89
49040;BME280;36811;49.732;13.402;2023-02-15T01:13:34;99370.06;;;0.91;95.58
49040;BME280;36811;49.732;13.402;2023-02-15T01:16:00;99362.31;;;0.89;95.50
49040;BME280;36811;49.732;13.402;2023-02-15T01:18:27;99370.53;;;0.94;96.08
49040;BME280;36811;49.732;13.402;2023-02-15T01:20:55;99364.81;;;0.99;95.04
49040;BME280;36811;49.732;13.402;2023-02-15T01:23:20;99361.66;;;0.87;95.23
49040;BME280;36811;49.732;13.402;2023-02-15T01:25:46;99354.28;;;0.83;95.46
49040;BME280;36811;49.732;13.402;2023-02-15T01:28:12;99342.56;;;0.69;95.69
49040;BME280;36811;49.732;13.402;2023-02-15T01:30:37;99351.19;;;0.61;97.12
49040;BME280;36811;49.732;13.402;2023-02-15T01:33:03;99352.44;;;0.75;97.46
49040;BME280;36811;49.732;13.402;2023-02-15T01:35:29;99352.84;;;0.88;96.55
49040;BME280;36811;49.732;13.402;2023-02-15T01:37:55;99345.44;;;0.84;96.00
49040;BME280;36811;49.732;13.402;2023-02-15T01:40:22;99348.56;;;0.87;96.43
49040;BME280;36811;49.732;13.402;2023-02-15T01:42:53;99343.56;;;0.68;96.75
49040;BME280;36811;49.732;13.402;2023-02-15T01:47:53;99337.31;;;0.69;96.46
49040;BME280;36811;49.732;13.402;2023-02-15T01:50:41;99330.06;;;0.55;97.08
49040;BME280;36811;49.732;13.402;2023-02-15T01:53:25;99336.16;;;0.63;98.02
49040;BME280;36811;49.732;13.402;2023-02-15T01:55:59;99324.03;;;0.96;98.36
49040;BME280;36811;49.732;13.402;2023-02-15T01:58:27;99318.88;;;1.12;96.35
49040;BME280;36811;49.732;13.402;2023-02-15T02:00:56;99313.81;;;1.19;95.99
49040;BME280;36811;49.732;13.402;2023-02-15T02:03:33;99316.00;;;1.23;95.62
49040;BME280;36811;49.732;13.402;2023-02-15T02:06:01;99309.38;;;1.11;94.91
49040;BME280;36811;49.732;13.402;2023-02-15T02:08:27;99315.31;;;1.13;95.28
49040;BME280;36811;49.732;13.402;2023-02-15T02:10:53;99320.88;;;1.18;95.07
49040;BME280;36811;49.732;13.402;2023-02-15T02:13:19;99318.94;;;1.20;94.50
49040;BME280;36811;49.732;13.402;2023-02-15T02:16:14;99324.16;;;1.20;94.04
49040;BME280;36811;49.732;13.402;2023-02-15T02:21:43;99313.59;;;1.04;93.75
49040;BME280;36811;49.732;13.402;2023-02-15T02:36:04;99303.72;;;0.90;94.01
49040;BME280;36811;49.732;13.402;2023-02-15T02:38:44;99307.63;;;0.86;94.68
49040;BME280;36811;49.732;13.402;2023-02-15T02:46:58;99300.59;;;0.87;94.97
49040;BME280;36811;49.732;13.402;2023-02-15T02:49:43;99294.09;;;0.91;94.84
49040;BME280;36811;49.732;13.402;2023-02-15T02:52:40;99293.53;;;0.79;94.60
49040;BME280;36811;49.732;13.402;2023-02-15T02:55:08;99284.00;;;0.70;94.60
49040;BME280;36811;49.732;13.402;2023-02-15T02:57:40;99284.59;;;0.64;95.25
49040;BME280;36811;49.732;13.402;2023-02-15T03:00:07;99283.00;;;0.71;95.16
49040;BME280;36811;49.732;13.402;2023-02-15T03:02:37;99285.00;;;0.77;95.40
49040;BME280;36811;49.732;13.402;2023-02-15T03:05:09;99283.00;;;0.71;94.46
49040;BME280;36811;49.732;13.402;2023-02-15T03:07:39;99277.47;;;0.74;95.23
49040;BME280;36811;49.732;13.402;2023-02-15T03:10:07;99289.28;;;0.78;94.76
49040;BME280;36811;49.732;13.402;2023-02-15T03:12:36;99275.84;;;0.81;94.71
49040;BME280;36811;49.732;13.402;2023-02-15T03:15:13;99265.72;;;0.86;94.89
49040;BME280;36811;49.732;13.402;2023-02-15T03:17:44;99277.50;;;0.82;94.56
49040;BME280;36811;49.732;13.402;2023-02-15T03:20:16;99274.19;;;0.72;94.01
49040;BME280;36811;49.732;13.402;2023-02-15T03:22:50;99276.69;;;0.56;94.58
49040;BME280;36811;49.732;13.402;2023-02-15T03:25:24;99279.13;;;0.49;94.55
49040;BME280;36811;49.732;13.402;2023-02-15T03:28:04;99267.66;;;0.42;94.90
49040;BME280;36811;49.732;13.402;2023-02-15T03:30:32;99271.44;;;0.48;95.81
49040;BME280;36811;49.732;13.402;2023-02-15T03:33:00;99265.44;;;0.63;94.85
49040;BME280;36811;49.732;13.402;2023-02-15T03:35:36;99272.88;;;0.68;94.51
49040;BME280;36811;49.732;13.402;2023-02-15T03:38:07;99271.91;;;0.77;94.40
49040;BME280;36811;49.732;13.402;2023-02-15T03:40:40;99267.03;;;0.82;94.04
49040;BME280;36811;49.732;13.402;2023-02-15T03:48:40;99267.34;;;0.79;94.05
49040;BME280;36811;49.732;13.402;2023-02-15T03:51:12;99279.09;;;0.75;94.29
49040;BME280;36811;49.732;13.402;2023-02-15T03:54:04;99264.56;;;0.81;94.02
49040;BME280;36811;49.732;13.402;2023-02-15T03:56:34;99263.88;;;0.79;93.50
49040;BME280;36811;49.732;13.402;2023-02-15T03:59:01;99262.75;;;0.73;93.98
49040;BME280;36811;49.732;13.402;2023-02-15T04:06:52;99276.56;;;0.57;93.65
49040;BME280;36811;49.732;13.402;2023-02-15T04:09:18;99269.06;;;0.62;94.41
49040;BME280;36811;49.732;13.402;2023-02-15T04:12:01;99273.66;;;0.69;94.18
49040;BME280;36811;49.732;13.402;2023-02-15T04:14:27;99271.22;;;0.67;93.58
49040;BME280;36811;49.732;13.402;2023-02-15T04:17:11;99280.38;;;0.63;93.71
49040;BME280;36811;49.732;13.402;2023-02-15T04:19:37;99279.31;;;0.56;93.90
49040;BME280;36811;49.732;13.402;2023-02-15T04:22:20;99276.00;;;0.46;93.83
49040;BME280;36811;49.732;13.402;2023-02-15T04:25:05;99274.00;;;0.40;94.13
49040;BME280;36811;49.732;13.402;2023-02-15T04:27:38;99280.25;;;0.47;94.52
49040;BME280;36811;49.732;13.402;2023-02-15T04:30:05;99270.31;;;0.50;93.76
49040;BME280;36811;49.732;13.402;2023-02-15T04:32:31;99268.13;;;0.46;94.68
49040;BME280;36811;49.732;13.402;2023-02-15T04:34:57;99267.47;;;0.44;93.48
49040;BME280;36811;49.732;13.402;2023-02-15T04:37:23;99267.75;;;0.33;94.54
49040;BME280;36811;49.732;13.402;2023-02-15T04:39:48;99272.22;;;0.40;94.77
49040;BME280;36811;49.732;13.402;2023-02-15T04:42:15;99264.56;;;0.47;94.61
49040;BME280;36811;49.732;13.402;2023-02-15T04:44:41;99267.00;;;0.48;94.90
49040;BME280;36811;49.732;13.402;2023-02-15T04:47:07;99273.25;;;0.47;94.60
49040;BME280;36811;49.732;13.402;2023-02-15T04:49:32;99265.56;;;0.54;93.86
49040;BME280;36811;49.732;13.402;2023-02-15T04:51:58;99272.16;;;0.58;94.44
49040;BME280;36811;49.732;13.402;2023-02-15T04:54:24;99253.47;;;0.53;94.08
49040;BME280;36811;49.732;13.402;2023-02-15T04:56:49;99268.78;;;0.40;93.94
49040;BME280;36811;49.732;13.402;2023-02-15T04:59:15;99264.06;;;0.18;93.92
49040;BME280;36811;49.732;13.402;2023-02-15T05:01:41;99268.69;;;0.06;94.73
49040;BME280;36811;49.732;13.402;2023-02-15T05:04:07;99260.59;;;-0.09;95.42
49040;BME280;36811;49.732;13.402;2023-02-15T05:06:33;99263.47;;;0.06;95.53
49040;BME280;36811;49.732;13.402;2023-02-15T05:08:59;99264.75;;;0.02;95.76
49040;BME280;36811;49.732;13.402;2023-02-15T05:11:25;99261.03;;;0.05;95.97
49040;BME280;36811;49.732;13.402;2023-02-15T05:13:51;99257.63;;;0.12;95.68
49040;BME280;36811;49.732;13.402;2023-02-15T05:16:17;99257.28;;;0.07;96.03
49040;BME280;36811;49.732;13.402;2023-02-15T05:18:43;99254.91;;;-0.04;95.11
49040;BME280;36811;49.732;13.402;2023-02-15T05:21:08;99254.69;;;-0.11;95.76
49040;BME280;36811;49.732;13.402;2023-02-15T05:23:34;99260.94;;;-0.04;94.89
49040;BME280;36811;49.732;13.402;2023-02-15T05:26:00;99255.13;;;0.03;95.73
49040;BME280;36811;49.732;13.402;2023-02-15T05:28:44;99262.63;;;0.06;95.84
49040;BME280;36811;49.732;13.402;2023-02-15T05:31:15;99270.28;;;-0.01;94.49
49040;BME280;36811;49.732;13.402;2023-02-15T05:33:42;99262.38;;;-0.09;95.49
49040;BME280;36811;49.732;13.402;2023-02-15T05:36:09;99259.66;;;0.00;95.96
49040;BME280;36811;49.732;13.402;2023-02-15T05:38:34;99259.16;;;-0.03;95.29
49040;BME280;36811;49.732;13.402;2023-02-15T05:41:03;99257.88;;;0.01;95.69
49040;BME280;36811;49.732;13.402;2023-02-15T05:43:30;99254.72;;;-0.03;95.47
49040;BME280;36811;49.732;13.402;2023-02-15T05:45:56;99260.38;;;0.11;94.86
49040;BME280;36811;49.732;13.402;2023-02-15T05:48:24;99256.50;;;0.15;95.26
49040;BME280;36811;49.732;13.402;2023-02-15T05:51:02;99264.72;;;0.20;94.77
49040;BME280;36811;49.732;13.402;2023-02-15T05:53:30;99246.25;;;0.21;94.60
49040;BME280;36811;49.732;13.402;2023-02-15T05:55:56;99252.09;;;0.15;94.48
49040;BME280;36811;49.732;13.402;2023-02-15T05:58:31;99253.44;;;0.19;95.16
49040;BME280;36811;49.732;13.402;2023-02-15T06:00:57;99255.22;;;0.19;94.79
49040;BME280;36811;49.732;13.402;2023-02-15T06:03:23;99254.63;;;0.25;94.59
49040;BME280;36811;49.732;13.402;2023-02-15T06:05:52;99256.59;;;0.31;94.21
49040;BME280;36811;49.732;13.402;2023-02-15T06:08:18;99263.66;;;0.30;94.32
49040;BME280;36811;49.732;13.402;2023-02-15T06:10:46;99263.94;;;0.27;94.25
49040;BME280;36811;49.732;13.402;2023-02-15T06:13:11;99269.78;;;0.21;94.15
49040;BME280;36811;49.732;13.402;2023-02-15T06:15:37;99269.03;;;0.29;94.81
49040;BME280;36811;49.732;13.402;2023-02-15T06:18:03;99272.66;;;0.36;95.06
49040;BME280;36811;49.732;13.402;2023-02-15T06:20:29;99273.66;;;0.35;94.17
49040;BME280;36811;49.732;13.402;2023-02-15T06:22:54;99264.91;;;0.26;94.15
49040;BME280;36811;49.732;13.402;2023-02-15T06:25:20;99272.28;;;0.23;93.89
49040;BME280;36811;49.732;13.402;2023-02-15T06:27:45;99267.03;;;0.23;94.38
49040;BME280;36811;49.732;13.402;2023-02-15T06:30:12;99275.31;;;0.18;93.65
49040;BME280;36811;49.732;13.402;2023-02-15T06:32:37;99277.94;;;0.18;94.11
49040;BME280;36811;49.732;13.402;2023-02-15T06:35:04;99274.19;;;0.21;93.92
49040;BME280;36811;49.732;13.402;2023-02-15T06:37:29;99279.53;;;0.11;94.01
49040;BME280;36811;49.732;13.402;2023-02-15T06:39:55;99280.66;;;0.09;94.05
49040;BME280;36811;49.732;13.402;2023-02-15T06:42:22;99277.56;;;0.13;94.46
49040;BME280;36811;49.732;13.402;2023-02-15T06:44:47;99277.28;;;0.16;94.22
49040;BME280;36811;49.732;13.402;2023-02-15T06:47:13;99274.41;;;0.27;94.77
49040;BME280;36811;49.732;13.402;2023-02-15T06:49:39;99275.13;;;0.37;93.48
49040;BME280;36811;49.732;13.402;2023-02-15T06:52:05;99268.78;;;0.40;92.88
49040;BME280;36811;49.732;13.402;2023-02-15T06:54:30;99268.25;;;0.36;92.54
49040;BME280;36811;49.732;13.402;2023-02-15T06:56:56;99275.97;;;0.38;93.36
49040;BME280;36811;49.732;13.402;2023-02-15T06:59:22;99272.28;;;0.31;92.97
49040;BME280;36811;49.732;13.402;2023-02-15T07:01:47;99275.63;;;0.41;93.30
49040;BME280;36811;49.732;13.402;2023-02-15T07:04:14;99281.91;;;0.48;92.68
49040;BME280;36811;49.732;13.402;2023-02-15T07:06:40;99270.50;;;0.31;92.94
49040;BME280;36811;49.732;13.402;2023-02-15T07:09:06;99272.00;;;0.34;92.96
49040;BME280;36811;49.732;13.402;2023-02-15T07:11:32;99273.00;;;0.41;93.31
49040;BME280;36811;49.732;13.402;2023-02-15T07:14:16;99268.13;;;0.46;92.39
49040;BME280;36811;49.732;13.402;2023-02-15T07:16:42;99271.94;;;0.51;92.40
49040;BME280;36811;49.732;13.402;2023-02-15T07:19:08;99268.00;;;0.47;92.68
49040;BME280;36811;49.732;13.402;2023-02-15T07:21:35;99270.09;;;0.44;92.64
49040;BME280;36811;49.732;13.402;2023-02-15T07:24:02;99268.66;;;0.24;92.99
49040;BME280;36811;49.732;13.402;2023-02-15T07:26:27;99260.09;;;0.14;93.34
49040;BME280;36811;49.732;13.402;2023-02-15T07:28:53;99266.69;;;0.18;93.37
49040;BME280;36811;49.732;13.402;2023-02-15T07:31:18;99263.50;;;-0.12;93.07
49040;BME280;36811;49.732;13.402;2023-02-15T07:33:44;99268.22;;;-0.33;94.22
49040;BME280;36811;49.732;13.402;2023-02-15T07:36:10;99261.44;;;-0.26;94.93
49040;BME280;36811;49.732;13.402;2023-02-15T07:38:39;99268.28;;;-0.25;94.71
49040;BME280;36811;49.732;13.402;2023-02-15T07:41:09;99267.53;;;-0.17;94.99
49040;BME280;36811;49.732;13.402;2023-02-15T07:43:37;99270.41;;;-0.03;95.94
49040;BME280;36811;49.732;13.402;2023-02-15T07:46:06;99262.81;;;0.30;95.77
49040;BME280;36811;49.732;13.402;2023-02-15T07:48:34;99270.16;;;0.52;94.64
49040;BME280;36811;49.732;13.402;2023-02-15T07:51:02;99270.25;;;0.68;94.41
49040;BME280;36811;49.732;13.402;2023-02-15T07:53:28;99263.88;;;0.71;92.71
49040;BME280;36811;49.732;13.402;2023-02-15T07:55:54;99267.94;;;0.65;92.06
49040;BME280;36811;49.732;13.402;2023-02-15T07:58:20;99266.69;;;0.77;92.42
49040;BME280;36811;49.732;13.402;2023-02-15T08:01:06;99261.81;;;0.90;92.29
49040;BME280;36811;49.732;13.402;2023-02-15T08:03:32;99263.97;;;0.95;91.24
49040;BME280;36811;49.732;13.402;2023-02-15T08:06:00;99261.69;;;0.58;90.19
49040;BME280;36811;49.732;13.402;2023-02-15T08:08:26;99261.16;;;0.29;91.49
49040;BME280;36811;49.732;13.402;2023-02-15T08:13:42;99257.75;;;0.62;93.36
49040;BME280;36811;49.732;13.402;2023-02-15T08:16:30;99255.16;;;0.62;92.34
49040;BME280;36811;49.732;13.402;2023-02-15T08:18:58;99260.69;;;0.59;92.01
49040;BME280;36811;49.732;13.402;2023-02-15T08:21:27;99253.84;;;0.66;91.33
49040;BME280;36811;49.732;13.402;2023-02-15T08:23:54;99249.66;;;0.73;91.39
49040;BME280;36811;49.732;13.402;2023-02-15T08:26:21;99245.63;;;0.61;90.18
49040;BME280;36811;49.732;13.402;2023-02-15T08:28:47;99248.94;;;0.63;91.25
49040;BME280;36811;49.732;13.402;2023-02-15T08:31:14;99245.38;;;0.72;90.99
49040;BME280;36811;49.732;13.402;2023-02-15T08:33:42;99250.66;;;0.80;91.66
49040;BME280;36811;49.732;13.402;2023-02-15T08:36:11;99245.16;;;0.99;90.88
49040;BME280;36811;49.732;13.402;2023-02-15T08:38:38;99250.25;;;1.09;91.23
49040;BME280;36811;49.732;13.402;2023-02-15T08:41:24;99250.38;;;0.99;90.21
49040;BME280;36811;49.732;13.402;2023-02-15T08:43:53;99255.19;;;1.20;91.01
49040;BME280;36811;49.732;13.402;2023-02-15T08:46:20;99260.59;;;1.26;90.34
49040;BME280;36811;49.732;13.402;2023-02-15T08:48:46;99250.28;;;1.25;89.03
49040;BME280;36811;49.732;13.402;2023-02-15T08:51:15;99250.06;;;1.02;88.72
49040;BME280;36811;49.732;13.402;2023-02-15T08:53:44;99246.72;;;0.84;89.49
49040;BME280;36811;49.732;13.402;2023-02-15T08:56:11;99249.13;;;0.70;90.32
49040;BME280;36811;49.732;13.402;2023-02-15T08:58:37;99244.63;;;0.54;90.91
49040;BME280;36811;49.732;13.402;2023-02-15T09:01:18;99246.38;;;0.79;91.18
49040;BME280;36811;49.732;13.402;2023-02-15T09:03:47;99250.69;;;0.88;90.76
49040;BME280;36811;49.732;13.402;2023-02-15T09:06:14;99251.50;;;0.89;89.82
49040;BME280;36811;49.732;13.402;2023-02-15T09:08:40;99251.38;;;0.98;89.82
49040;BME280;36811;49.732;13.402;2023-02-15T09:11:20;99250.75;;;1.12;89.79
49040;BME280;36811;49.732;13.402;2023-02-15T09:14:02;99246.38;;;1.21;89.50
49040;BME280;36811;49.732;13.402;2023-02-15T09:16:31;99246.81;;;1.16;89.01
49040;BME280;36811;49.732;13.402;2023-02-15T09:18:57;99244.75;;;1.28;88.57
49040;BME280;36811;49.732;13.402;2023-02-15T09:21:24;99244.09;;;1.26;88.20
49040;BME280;36811;49.732;13.402;2023-02-15T09:23:55;99252.78;;;1.35;87.89
49040;BME280;36811;49.732;13.402;2023-02-15T09:26:23;99247.63;;;1.01;87.22
49040;BME280;36811;49.732;13.402;2023-02-15T09:28:52;99241.94;;;1.29;87.27
49040;BME280;36811;49.732;13.402;2023-02-15T09:31:22;99236.38;;;1.33;86.60
49040;BME280;36811;49.732;13.402;2023-02-15T09:33:49;99242.72;;;1.14;85.12
49040;BME280;36811;49.732;13.402;2023-02-15T09:38:50;99231.97;;;0.75;87.23
49040;BME280;36811;49.732;13.402;2023-02-15T09:55:11;99214.72;;;1.14;87.33
49040;BME280;36811;49.732;13.402;2023-02-15T09:57:58;99215.09;;;1.27;85.99
49040;BME280;36811;49.732;13.402;2023-02-15T10:03:40;99199.38;;;1.68;87.06
49040;BME280;36811;49.732;13.402;2023-02-15T10:23:25;99195.94;;;2.54;82.17
49040;BME280;36811;49.732;13.402;2023-02-15T10:34:19;99198.22;;;2.66;81.35
49040;BME280;36811;49.732;13.402;2023-02-15T10:37:29;99196.25;;;2.60;80.92
49040;BME280;36811;49.732;13.402;2023-02-15T10:46:11;99198.47;;;2.32;81.79
49040;BME280;36811;49.732;13.402;2023-02-15T10:49:05;99188.13;;;2.38;81.49
49040;BME280;36811;49.732;13.402;2023-02-15T10:59:53;99177.28;;;2.41;81.75
49040;BME280;36811;49.732;13.402;2023-02-15T11:02:37;99174.38;;;2.20;81.61
49040;BME280;36811;49.732;13.402;2023-02-15T11:07:51;99164.91;;;2.11;82.35
49040;BME280;36811;49.732;13.402;2023-02-15T11:13:35;99158.09;;;2.33;82.43
49040;BME280;36811;49.732;13.402;2023-02-15T11:16:09;99153.47;;;2.43;82.02
49040;BME280;36811;49.732;13.402;2023-02-15T11:21:39;99150.28;;;2.55;81.30
49040;BME280;36811;49.732;13.402;2023-02-15T11:24:16;99153.28;;;2.52;81.13
49040;BME280;36811;49.732;13.402;2023-02-15T11:26:54;99145.22;;;2.54;80.78
49040;BME280;36811;49.732;13.402;2023-02-15T11:32:01;99139.09;;;2.23;81.30
49040;BME280;36811;49.732;13.402;2023-02-15T11:34:44;99134.69;;;2.15;81.84
49040;BME280;36811;49.732;13.402;2023-02-15T11:37:18;99134.03;;;2.21;82.17
49040;BME280;36811;49.732;13.402;2023-02-15T11:39:45;99131.38;;;2.29;82.49
49040;BME280;36811;49.732;13.402;2023-02-15T11:42:21;99133.16;;;2.37;81.83
49040;BME280;36811;49.732;13.402;2023-02-15T11:45:17;99129.81;;;2.51;82.67
49040;BME280;36811;49.732;13.402;2023-02-15T11:47:45;99123.19;;;2.24;81.66
49040;BME280;36811;49.732;13.402;2023-02-15T11:50:21;99129.22;;;2.33;82.99
49040;BME280;36811;49.732;13.402;2023-02-15T11:52:52;99125.38;;;2.51;82.21
49040;BME280;36811;49.732;13.402;2023-02-15T11:55:21;99125.78;;;2.32;82.74
49040;BME280;36811;49.732;13.402;2023-02-15T11:57:57;99127.25;;;2.35;82.57
49040;BME280;36811;49.732;13.402;2023-02-15T12:00:35;99124.25;;;2.46;82.71
49040;BME280;36811;49.732;13.402;2023-02-15T12:03:16;99124.28;;;2.69;82.36
49040;BME280;36811;49.732;13.402;2023-02-15T12:05:46;99125.34;;;2.90;81.72
49040;BME280;36811;49.732;13.402;2023-02-15T12:08:16;99122.09;;;3.11;81.35
49040;BME280;36811;49.732;13.402;2023-02-15T12:13:14;99127.88;;;2.45;82.12
49040;BME280;36811;49.732;13.402;2023-02-15T12:15:45;99116.94;;;2.25;81.58
49040;BME280;36811;49.732;13.402;2023-02-15T12:21:02;99105.34;;;2.20;82.99
49040;BME280;36811;49.732;13.402;2023-02-15T12:23:29;99106.59;;;2.32;82.51
49040;BME280;36811;49.732;13.402;2023-02-15T12:25:56;99096.31;;;2.53;82.56
49040;BME280;36811;49.732;13.402;2023-02-15T12:30:53;99092.03;;;2.83;81.02
49040;BME280;36811;49.732;13.402;2023-02-15T12:33:29;99082.38;;;3.06;81.19
49040;BME280;36811;49.732;13.402;2023-02-15T12:36:26;99085.19;;;3.19;80.91
49040;BME280;36811;49.732;13.402;2023-02-15T12:41:43;99083.47;;;3.49;79.13
49040;BME280;36811;49.732;13.402;2023-02-15T12:44:19;99073.34;;;3.60;78.65
49040;BME280;36811;49.732;13.402;2023-02-15T12:47:04;99068.97;;;3.67;78.38
49040;BME280;36811;49.732;13.402;2023-02-15T12:49:35;99072.97;;;3.63;77.16
49040;BME280;36811;49.732;13.402;2023-02-15T12:52:04;99068.47;;;3.35;78.94
49040;BME280;36811;49.732;13.402;2023-02-15T12:54:41;99061.44;;;3.12;79.47
49040;BME280;36811;49.732;13.402;2023-02-15T12:57:33;99055.56;;;3.25;79.40
49040;BME280;36811;49.732;13.402;2023-02-15T13:00:26;99051.97;;;3.26;78.88
49040;BME280;36811;49.732;13.402;2023-02-15T13:02:55;99044.78;;;3.20;79.08
49040;BME280;36811;49.732;13.402;2023-02-15T13:08:17;99048.94;;;3.14;79.47
49040;BME280;36811;49.732;13.402;2023-02-15T13:11:03;99044.97;;;3.18;79.75
49040;BME280;36811;49.732;13.402;2023-02-15T13:13:34;99040.38;;;2.98;79.13
49040;BME280;36811;49.732;13.402;2023-02-15T13:16:05;99042.88;;;2.69;80.02
49040;BME280;36811;49.732;13.402;2023-02-15T13:18:39;99032.66;;;2.74;80.15
49040;BME280;36811;49.732;13.402;2023-02-15T13:21:18;99032.78;;;3.03;79.53
49040;BME280;36811;49.732;13.402;2023-02-15T13:23:48;99032.72;;;3.11;79.07
49040;BME280;36811;49.732;13.402;2023-02-15T13:26:20;99032.75;;;3.40;78.65
49040;BME280;36811;49.732;13.402;2023-02-15T13:28:56;99026.16;;;3.59;77.98
49040;BME280;36811;49.732;13.402;2023-02-15T13:31:26;99031.13;;;3.39;78.00
49040;BME280;36811;49.732;13.402;2023-02-15T13:33:55;99031.81;;;3.18;78.63
49040;BME280;36811;49.732;13.402;2023-02-15T13:36:35;99032.00;;;3.32;78.37
49040;BME280;36811;49.732;13.402;2023-02-15T13:39:21;99030.69;;;2.98;78.58
49040;BME280;36811;49.732;13.402;2023-02-15T13:52:33;99031.31;;;2.24;80.95
49040;BME280;36811;49.732;13.402;2023-02-15T13:58:01;99032.88;;;2.41;82.73
49040;BME280;36811;49.732;13.402;2023-02-15T14:00:48;99030.03;;;2.74;80.60
49040;BME280;36811;49.732;13.402;2023-02-15T14:15:47;99014.72;;;2.54;81.45
49040;BME280;36811;49.732;13.402;2023-02-15T14:21:27;99011.47;;;2.75;80.91
49040;BME280;36811;49.732;13.402;2023-02-15T14:24:24;99009.59;;;2.84;80.62
49040;BME280;36811;49.732;13.402;2023-02-15T14:29:25;99008.13;;;2.81;80.55
49040;BME280;36811;49.732;13.402;2023-02-15T14:31:57;99014.16;;;2.90;80.51
49040;BME280;36811;49.732;13.402;2023-02-15T14:34:30;99013.03;;;2.84;80.28
49040;BME280;36811;49.732;13.402;2023-02-15T14:37:00;99015.94;;;2.89;80.62
49040;BME280;36811;49.732;13.402;2023-02-15T14:39:52;99014.50;;;2.87;80.37
49040;BME280;36811;49.732;13.402;2023-02-15T14:48:48;99009.56;;;2.38;81.55
49040;BME280;36811;49.732;13.402;2023-02-15T15:04:39;99003.00;;;2.12;82.77
49040;BME280;36811;49.732;13.402;2023-02-15T15:09:35;99006.19;;;2.30;83.07
49040;BME280;36811;49.732;13.402;2023-02-15T15:12:36;99000.84;;;2.15;82.58
49040;BME280;36811;49.732;13.402;2023-02-15T15:15:04;98995.75;;;1.83;83.71
49040;BME280;36811;49.732;13.402;2023-02-15T15:36:53;98997.69;;;1.89;84.55
49040;BME280;36811;49.732;13.402;2023-02-15T15:40:21;98995.84;;;1.59;86.38
49040;BME280;36811;49.732;13.402;2023-02-15T15:43:19;98998.91;;;1.70;85.65
49040;BME280;36811;49.732;13.402;2023-02-15T15:48:36;98987.09;;;1.74;86.12
49040;BME280;36811;49.732;13.402;2023-02-15T15:51:12;98994.84;;;1.60;86.40
49040;BME280;36811;49.732;13.402;2023-02-15T15:53:45;99001.03;;;1.75;86.75
49040;BME280;36811;49.732;13.402;2023-02-15T15:56:21;99002.19;;;1.72;85.65
49040;BME280;36811;49.732;13.402;2023-02-15T15:58:57;98997.63;;;1.66;86.44
49040;BME280;36811;49.732;13.402;2023-02-15T16:01:27;99001.28;;;1.49;86.13
49040;BME280;36811;49.732;13.402;2023-02-15T16:03:56;99006.53;;;1.41;87.68
49040;BME280;36811;49.732;13.402;2023-02-15T16:08:55;99002.28;;;1.24;88.68
49040;BME280;36811;49.732;13.402;2023-02-15T16:11:27;99013.28;;;1.27;89.28
49040;BME280;36811;49.732;13.402;2023-02-15T16:13:55;99006.75;;;1.23;89.76
49040;BME280;36811;49.732;13.402;2023-02-15T16:16:27;98995.09;;;1.26;89.28
49040;BME280;36811;49.732;13.402;2023-02-15T16:18:55;99002.13;;;1.34;89.23
49040;BME280;36811;49.732;13.402;2023-02-15T16:21:29;99002.28;;;1.32;88.61
49040;BME280;36811;49.732;13.402;2023-02-15T16:24:18;99008.53;;;1.31;88.72
49040;BME280;36811;49.732;13.402;2023-02-15T16:27:08;99009.69;;;1.12;88.24
49040;BME280;36811;49.732;13.402;2023-02-15T16:29:39;99008.41;;;1.08;89.41
49040;BME280;36811;49.732;13.402;2023-02-15T16:32:22;99003.81;;;1.10;89.53
49040;BME280;36811;49.732;13.402;2023-02-15T16:34:53;99007.91;;;0.97;90.35
49040;BME280;36811;49.732;13.402;2023-02-15T16:37:22;98995.94;;;0.94;90.03
49040;BME280;36811;49.732;13.402;2023-02-15T16:39:50;99004.81;;;0.85;89.51